Time;durP1;ratioP1;P1;durP2;ratioP2;P2;SDS_P1;SDS_P2;PMS_P1;PMS_P2;Temp;Humidity;BMP_temperature;BMP_pressure;BME280_temperature;BME280_humidity;BME280_pressure;Samples;Min_cycle;Max_cycle;Signal;HPM_P1;HPM_P2
2023/10/23 00:01:16;;;;;;;10.00;3.38;;;;;;;15.12;74.28;99554.59;6332492;22;20224;-92
2023/10/23 00:03:41;;;;;;;7.00;2.37;;;;;;;15.02;74.28;99555.59;6305186;22;20340;-92
2023/10/23 00:06:07;;;;;;;6.60;1.95;;;;;;;15.20;74.31;99557.75;6332658;22;20315;-92
2023/10/23 00:08:32;;;;;;;5.07;1.83;;;;;;;14.92;74.94;99566.72;6333068;22;20026;-91
2023/10/23 00:10:57;;;;;;;5.60;1.73;;;;;;;15.04;74.85;99571.75;6305427;22;20010;-92
2023/10/23 00:13:22;;;;;;;5.80;2.00;;;;;;;15.00;74.79;99568.78;6332577;22;20228;-92
2023/10/23 00:15:48;;;;;;;5.23;2.03;;;;;;;15.05;74.76;99571.44;6331079;22;20280;-92
2023/10/23 00:18:13;;;;;;;8.45;2.80;;;;;;;14.99;74.47;99572.63;6333001;22;20271;-92
2023/10/23 00:20:38;;;;;;;4.45;2.28;;;;;;;14.99;74.88;99572.63;6331830;22;20018;-92
2023/10/23 00:23:04;;;;;;;4.80;1.67;;;;;;;15.10;74.88;99572.47;6331264;22;20011;-92
2023/10/23 00:25:29;;;;;;;5.68;2.72;;;;;;;15.11;74.65;99576.84;6332353;22;20038;-91
2023/10/23 00:27:54;;;;;;;4.00;1.85;;;;;;;15.04;74.35;99569.81;6333163;22;20030;-92
2023/10/23 00:30:19;;;;;;;7.80;1.53;;;;;;;15.01;75.15;99573.16;6338935;22;20011;-92
2023/10/23 00:32:45;;;;;;;6.53;2.60;;;;;;;15.00;74.63;99579.78;6344470;22;20207;-92
2023/10/23 00:35:10;;;;;;;4.87;2.00;;;;;;;15.17;74.50;99578.41;6336586;22;20577;-91
2023/10/23 00:37:35;;;;;;;3.55;1.75;;;;;;;15.21;74.24;99573.13;6331503;22;20279;-92
2023/10/23 00:40:01;;;;;;;4.57;1.92;;;;;;;15.14;74.01;99570.75;6331639;22;20493;-92
2023/10/23 00:42:26;;;;;;;6.25;2.88;;;;;;;15.24;74.12;99567.84;6331268;22;20491;-92
2023/10/23 00:44:51;;;;;;;7.80;2.15;;;;;;;15.04;74.29;99569.00;6331097;22;20094;-93
2023/10/23 00:47:18;;;;;;;9.45;2.45;;;;;;;15.18;74.08;99571.78;6332014;22;20340;-92
2023/10/23 00:49:43;;;;;;;19.65;2.67;;;;;;;15.24;73.58;99580.75;6331041;22;20002;-92
2023/10/23 00:52:09;;;;;;;5.15;2.25;;;;;;;15.27;73.53;99580.97;6331126;22;20010;-93
2023/10/23 00:54:36;;;;;;;4.40;1.63;;;;;;;15.13;74.31;99582.88;6331607;22;20518;-92
2023/10/23 00:57:02;;;;;;;6.68;1.88;;;;;;;15.08;74.61;99580.19;6331369;22;20007;-93
2023/10/23 00:59:28;;;;;;;5.13;2.00;;;;;;;14.93;74.68;99582.06;6331647;22;19999;-92
2023/10/23 01:01:53;;;;;;;8.77;3.22;;;;;;;14.73;75.24;99581.25;6303702;22;20006;-92
2023/10/23 01:04:19;;;;;;;4.32;1.83;;;;;;;14.88;75.08;99582.97;6331910;22;20087;-92
2023/10/23 01:06:45;;;;;;;8.48;2.30;;;;;;;14.92;74.82;99575.78;6331733;22;20030;-92
2023/10/23 01:09:10;;;;;;;7.07;2.60;;;;;;;14.90;74.71;99585.41;6331883;22;20472;-93
2023/10/23 01:11:35;;;;;;;6.25;1.92;;;;;;;14.90;74.50;99582.66;6304100;22;20335;-93
2023/10/23 01:14:00;;;;;;;6.60;2.27;;;;;;;15.00;74.05;99581.69;6304582;22;20094;-92
2023/10/23 01:16:26;;;;;;;6.65;1.48;;;;;;;15.08;74.05;99588.44;6331782;22;20733;-93
2023/10/23 01:18:51;;;;;;;4.75;1.80;;;;;;;14.94;74.67;99590.03;6332163;22;20095;-93
2023/10/23 01:21:16;;;;;;;6.75;2.05;;;;;;;15.01;74.60;99597.06;6331697;22;20011;-92
2023/10/23 01:23:45;;;;;;;3.67;2.25;;;;;;;15.16;73.62;99583.06;6331526;22;20018;-92
2023/10/23 01:26:10;;;;;;;6.38;2.25;;;;;;;15.22;73.69;99581.06;6331838;22;20007;-92
2023/10/23 01:28:35;;;;;;;7.55;2.63;;;;;;;15.14;73.83;99587.22;6331972;22;20430;-93
2023/10/23 01:31:01;;;;;;;5.45;1.75;;;;;;;15.14;73.75;99581.75;6331701;22;20027;-92
2023/10/23 01:33:26;;;;;;;10.25;2.30;;;;;;;15.07;73.68;99584.88;6331629;22;20003;-93
2023/10/23 01:35:51;;;;;;;8.68;2.83;;;;;;;15.00;74.31;99579.78;6331770;22;20029;-92
2023/10/23 01:38:18;;;;;;;5.68;1.75;;;;;;;15.09;73.55;99584.56;6331365;22;20082;-93
2023/10/23 01:40:43;;;;;;;5.25;1.95;;;;;;;14.89;74.20;99586.53;6331284;22;20024;-92
2023/10/23 01:43:08;;;;;;;5.90;1.88;;;;;;;14.84;74.39;99583.88;6331168;22;20015;-92
2023/10/23 01:45:34;;;;;;;5.45;2.40;;;;;;;14.84;74.57;99581.13;6320529;22;20286;-96
2023/10/23 01:48:00;;;;;;;10.88;2.10;;;;;;;14.94;74.09;99586.44;6323872;22;20030;-96
2023/10/23 01:50:25;;;;;;;10.20;2.85;;;;;;;15.04;73.82;99583.53;6353606;22;19995;-96
2023/10/23 01:52:51;;;;;;;4.38;1.90;;;;;;;14.96;73.82;99586.97;6353663;22;20007;-96
2023/10/23 01:55:17;;;;;;;5.45;1.65;;;;;;;14.91;73.29;99590.59;6344218;22;20003;-96
2023/10/23 01:57:42;;;;;;;3.90;2.08;;;;;;;14.79;73.81;99585.53;6341039;22;20379;-96
2023/10/23 02:00:10;;;;;;;7.90;2.67;;;;;;;14.70;73.90;99570.88;6341423;22;20046;-96
2023/10/23 02:02:36;;;;;;;5.72;2.22;;;;;;;14.80;73.67;99572.63;6340505;22;19999;-96
2023/10/23 02:05:02;;;;;;;10.27;3.50;;;;;;;14.72;74.01;99568.66;6340927;22;19999;-96
2023/10/23 02:07:27;;;;;;;14.40;2.42;;;;;;;14.67;74.59;99576.94;6342174;22;20006;-96
2023/10/23 02:09:53;;;;;;;6.03;2.42;;;;;;;14.72;73.59;99579.63;6341415;22;20106;-96
2023/10/23 02:12:19;;;;;;;5.22;1.60;;;;;;;14.68;74.04;99578.59;6341236;22;20010;-96
2023/10/23 02:14:44;;;;;;;9.07;3.38;;;;;;;14.59;73.53;99586.66;6343221;22;20003;-96
2023/10/23 02:17:10;;;;;;;10.00;2.00;;;;;;;14.45;73.51;99581.91;6342616;22;20011;-96
2023/10/23 02:19:35;;;;;;;5.55;1.95;;;;;;;14.31;73.53;99584.56;6338550;22;20055;-96
2023/10/23 02:22:01;;;;;;;8.68;3.38;;;;;;;14.32;73.96;99594.41;6338265;22;20420;-96
2023/10/23 02:24:26;;;;;;;6.32;1.77;;;;;;;14.29;73.31;99588.72;6338903;22;20306;-96
2023/10/23 02:26:51;;;;;;;5.18;2.03;;;;;;;14.18;73.25;99599.81;6339302;22;20006;-96
2023/10/23 02:29:17;;;;;;;6.03;1.48;;;;;;;14.15;73.39;99599.56;6339443;22;20077;-96
2023/10/23 02:31:42;;;;;;;7.43;2.78;;;;;;;14.15;73.25;99600.41;6339781;22;20006;-96
2023/10/23 02:34:07;;;;;;;3.92;1.92;;;;;;;14.12;73.61;99610.03;6313780;22;20051;-95
2023/10/23 02:36:33;;;;;;;6.57;2.58;;;;;;;14.15;73.24;99616.03;6340922;22;20002;-96
2023/10/23 02:38:59;;;;;;;5.32;1.95;;;;;;;14.18;73.49;99609.94;6339651;22;19998;-96
2023/10/23 02:41:25;;;;;;;7.63;2.25;;;;;;;14.22;73.56;99606.34;6339794;22;20010;-96
2023/10/23 02:43:50;;;;;;;5.70;2.28;;;;;;;14.15;74.61;99616.03;6341391;22;20063;-96
2023/10/23 02:46:16;;;;;;;6.25;2.10;;;;;;;14.17;74.92;99611.06;6343560;22;20030;-96
2023/10/23 02:48:42;;;;;;;3.95;1.95;;;;;;;14.34;74.25;99603.16;6345487;22;20371;-96
2023/10/23 02:51:08;;;;;;;7.25;2.05;;;;;;;14.28;74.51;99600.81;6314374;22;20006;-96
2023/10/23 02:53:35;;;;;;;5.78;2.10;;;;;;;14.28;74.53;99604.34;6342151;22;20059;-96
2023/10/23 02:56:01;;;;;;;9.13;2.20;;;;;;;14.36;74.20;99600.94;6332646;22;20010;-92
2023/10/23 02:58:26;;;;;;;4.15;1.90;;;;;;;14.45;73.43;99603.03;6332163;22;20010;-91
2023/10/23 03:00:51;;;;;;;4.63;2.00;;;;;;;14.37;73.89;99607.25;6332794;22;20025;-92
2023/10/23 03:03:17;;;;;;;7.90;3.42;;;;;;;14.42;74.21;99609.13;6332069;22;20105;-91
2023/10/23 03:05:42;;;;;;;15.65;2.42;;;;;;;14.38;74.00;99603.38;6332478;22;20021;-92
2023/10/23 03:08:07;;;;;;;7.68;2.28;;;;;;;14.42;74.07;99606.38;6332879;22;20041;-91
2023/10/23 03:10:33;;;;;;;5.00;1.52;;;;;;;14.36;73.47;99611.91;6332867;22;20565;-91
2023/10/23 03:12:58;;;;;;;4.25;1.98;;;;;;;14.40;73.80;99605.84;6332535;22;20097;-91
2023/10/23 03:15:24;;;;;;;3.50;1.50;;;;;;;14.36;73.53;99606.44;6332698;22;20006;-92
2023/10/23 03:17:51;;;;;;;5.50;1.90;;;;;;;14.30;73.77;99607.59;6304659;22;20002;-92
2023/10/23 03:20:16;;;;;;;6.07;2.53;;;;;;;14.23;74.32;99612.63;6332552;22;20007;-92
2023/10/23 03:22:41;;;;;;;4.60;1.67;;;;;;;14.20;74.10;99613.22;6332295;22;20572;-92
2023/10/23 03:25:08;;;;;;;13.32;2.72;;;;;;;14.15;74.36;99616.03;6331796;22;20010;-92
2023/10/23 03:27:33;;;;;;;10.13;2.55;;;;;;;14.19;74.01;99612.41;6332422;22;20425;-92
2023/10/23 03:29:59;;;;;;;6.63;2.17;;;;;;;14.21;74.09;99620.34;6332228;22;20030;-91
2023/10/23 03:32:24;;;;;;;5.05;1.80;;;;;;;14.29;73.26;99616.94;6331706;22;20011;-92
2023/10/23 03:34:50;;;;;;;5.18;2.55;;;;;;;14.18;73.79;99618.16;6305264;22;20395;-91
2023/10/23 03:37:15;;;;;;;8.38;2.60;;;;;;;14.14;73.90;99612.47;6332145;22;20030;-91
2023/10/23 03:39:41;;;;;;;7.93;2.97;;;;;;;14.21;73.53;99615.69;6332199;22;20014;-91
2023/10/23 03:42:06;;;;;;;4.57;2.10;;;;;;;14.12;73.12;99612.75;6331934;22;20015;-91
2023/10/23 03:44:31;;;;;;;4.30;1.85;;;;;;;14.06;73.29;99611.19;6332586;22;20014;-91
2023/10/23 03:46:57;;;;;;;4.78;1.48;;;;;;;14.00;72.84;99609.59;6331929;22;20344;-91
2023/10/23 03:49:22;;;;;;;4.65;2.38;;;;;;;13.81;72.83;99610.34;6331833;22;20428;-93
2023/10/23 03:51:47;;;;;;;7.45;2.15;;;;;;;13.69;73.15;99620.91;6332314;22;20060;-92
2023/10/23 03:54:13;;;;;;;8.18;2.50;;;;;;;13.74;72.97;99618.09;6331617;22;20007;-92
2023/10/23 03:56:38;;;;;;;7.35;2.35;;;;;;;13.65;72.50;99621.47;6332102;22;20011;-92
2023/10/23 03:59:04;;;;;;;6.70;2.40;;;;;;;13.62;72.81;99622.06;6331652;22;20013;-92
2023/10/23 04:01:30;;;;;;;5.25;2.22;;;;;;;13.54;72.76;99633.66;6304620;22;20015;-92
2023/10/23 05:31:01;;;;;;;9.95;4.75;;;;;;;13.12;72.80;99642.16;6311996;22;20080;-93
2023/10/23 05:33:26;;;;;;;10.77;5.68;;;;;;;13.21;72.89;99645.09;6333317;22;20014;-93
2023/10/23 05:36:05;;;;;;;10.52;5.18;;;;;;;13.31;73.84;99644.22;6333522;22;20011;-92
2023/10/23 05:38:31;;;;;;;7.63;4.35;;;;;;;13.42;73.38;99640.28;6333195;22;20463;-93
2023/10/23 05:40:57;;;;;;;9.85;5.30;;;;;;;13.43;73.86;99641.91;6333298;22;20021;-93
2023/10/23 05:43:24;;;;;;;8.98;3.67;;;;;;;13.39;73.76;99635.38;6333115;22;20049;-93
2023/10/23 05:45:49;;;;;;;8.02;4.57;;;;;;;13.56;73.31;99628.69;6332589;22;20009;-93
2023/10/23 05:48:15;;;;;;;9.10;3.90;;;;;;;13.62;73.06;99638.50;6305927;22;20011;-93
2023/10/23 05:50:40;;;;;;;7.38;4.03;;;;;;;13.54;73.55;99639.13;6333037;22;20013;-93
2023/10/23 05:53:05;;;;;;;12.88;3.92;;;;;;;13.58;73.37;99637.44;6332933;22;20464;-92
2023/10/23 05:55:34;;;;;;;10.00;4.15;;;;;;;13.70;72.97;99647.19;6332795;22;20246;-94
2023/10/23 05:58:00;;;;;;;9.77;4.20;;;;;;;13.35;74.14;99642.53;6333741;22;20025;-93
2023/10/23 06:00:26;;;;;;;10.07;3.90;;;;;;;13.49;73.47;99648.16;6332983;22;20108;-93
2023/10/23 06:02:52;;;;;;;10.50;4.07;;;;;;;13.52;73.08;99649.53;6305548;22;20006;-93
2023/10/23 06:05:17;;;;;;;8.15;4.13;;;;;;;13.38;73.15;99654.84;6333166;22;20021;-93
2023/10/23 06:07:42;;;;;;;7.50;4.47;;;;;;;13.25;73.10;99653.56;6333334;22;20037;-93
2023/10/23 06:10:08;;;;;;;10.00;4.45;;;;;;;13.11;72.82;99658.88;6332990;22;20026;-93
2023/10/23 06:12:33;;;;;;;11.45;5.15;;;;;;;12.90;73.28;99645.31;6305094;22;20265;-93
2023/10/23 06:14:58;;;;;;;10.88;4.30;;;;;;;12.99;72.98;99653.75;6332889;22;20010;-93
2023/10/23 06:17:24;;;;;;;9.93;5.30;;;;;;;13.00;72.59;99653.44;6305556;22;20060;-92
2023/10/23 06:19:49;;;;;;;9.50;4.10;;;;;;;12.86;72.88;99650.53;6333152;22;20096;-92
2023/10/23 06:22:15;;;;;;;10.77;3.90;;;;;;;12.95;72.50;99654.31;6305420;22;20015;-93
2023/10/23 10:21:19;;;;;;;10.02;2.28;;;;;;;16.27;67.47;99579.13;6307373;22;20103;-92
2023/10/23 10:23:45;;;;;;;6.50;2.97;;;;;;;16.06;67.17;99571.31;6302043;22;20088;-93
2023/10/23 10:26:11;;;;;;;7.22;2.50;;;;;;;16.25;67.18;99573.13;6301357;22;20367;-92
2023/10/23 10:28:39;;;;;;;7.90;2.67;;;;;;;16.37;67.05;99573.41;6301899;22;20429;-92
2023/10/23 10:31:04;;;;;;;8.20;3.50;;;;;;;16.46;66.62;99570.72;6302241;22;20018;-93
2023/10/23 10:33:31;;;;;;;5.13;1.85;;;;;;;16.43;66.05;99566.66;6274363;22;20070;-92
2023/10/23 10:36:07;;;;;;;4.68;2.00;;;;;;;16.39;66.02;99560.16;6301804;22;20015;-93
2023/10/23 10:38:33;;;;;;;7.70;2.85;;;;;;;16.36;66.25;99558.00;6301802;22;20003;-93
2023/10/23 10:41:14;;;;;;;5.72;2.42;;;;;;;16.55;65.79;99562.56;6301846;22;20018;-92
2023/10/23 10:43:40;;;;;;;5.22;2.67;;;;;;;16.52;66.03;99560.41;6301407;22;20085;-93
2023/10/23 10:46:23;;;;;;;5.05;2.50;;;;;;;16.52;65.21;99554.91;6301572;22;20014;-93
2023/10/23 10:48:50;;;;;;;6.53;2.40;;;;;;;16.44;65.33;99550.97;6301191;22;20007;-93
2023/10/23 10:51:20;;;;;;;7.40;2.15;;;;;;;16.42;65.79;99545.78;6301799;22;20007;-92
2023/10/23 10:53:47;;;;;;;5.13;1.92;;;;;;;16.60;65.84;99543.16;6301726;22;20058;-93
2023/10/23 10:56:13;;;;;;;3.53;1.50;;;;;;;16.65;65.21;99543.06;6301661;22;20007;-92
2023/10/23 10:58:39;;;;;;;3.92;1.95;;;;;;;16.73;65.38;99540.69;6273578;22;20053;-94
2023/10/23 11:01:05;;;;;;;6.80;2.00;;;;;;;16.68;65.69;99539.69;6300734;22;20000;-92
2023/10/23 11:03:31;;;;;;;6.45;2.47;;;;;;;16.61;65.52;99528.31;6301628;22;20026;-93
2023/10/23 11:05:56;;;;;;;4.00;1.90;;;;;;;16.91;65.12;99519.59;6274813;22;20077;-93
2023/10/23 11:08:21;;;;;;;5.97;1.88;;;;;;;17.03;64.68;99513.50;6301325;22;20673;-92
2023/10/23 11:10:47;;;;;;;5.90;2.28;;;;;;;16.96;64.18;99515.91;6300407;22;20258;-93
2023/10/23 11:13:14;;;;;;;4.97;2.35;;;;;;;16.83;64.77;99515.66;6301028;22;20329;-93
2023/10/23 11:15:39;;;;;;;8.30;2.40;;;;;;;16.88;64.18;99504.50;6301305;22;20033;-93
2023/10/23 11:18:05;;;;;;;5.10;2.53;;;;;;;17.04;64.50;99517.91;6302047;22;20015;-92
2023/10/23 11:20:31;;;;;;;5.85;2.63;;;;;;;16.78;64.43;99510.28;6301398;22;20478;-93
2023/10/23 11:22:56;;;;;;;5.25;2.35;;;;;;;16.90;64.68;99513.28;6300682;22;20098;-93
2023/10/23 11:25:22;;;;;;;3.50;2.00;;;;;;;16.91;64.71;99498.41;6301322;22;20038;-92
2023/10/23 11:27:50;;;;;;;5.13;2.10;;;;;;;17.19;64.03;99496.66;6274565;22;20056;-94
2023/10/23 11:30:15;;;;;;;6.22;2.53;;;;;;;17.22;64.30;99494.06;6273356;22;20250;-93
2023/10/23 11:32:44;;;;;;;7.57;2.88;;;;;;;17.31;64.17;99490.53;6301125;22;20389;-93
2023/10/23 11:35:09;;;;;;;4.63;2.00;;;;;;;17.28;63.90;99486.47;6301204;22;20007;-92
2023/10/23 11:37:39;;;;;;;3.33;1.92;;;;;;;17.29;64.24;99490.84;6301608;22;19999;-92
2023/10/23 11:40:07;;;;;;;8.48;2.63;;;;;;;17.39;63.71;99479.53;6301343;22;20003;-92
2023/10/23 11:42:55;;;;;;;4.45;2.22;;;;;;;17.26;64.00;99480.47;6274177;22;20003;-93
2023/10/23 11:45:21;;;;;;;4.57;1.92;;;;;;;17.35;64.41;99473.03;6274157;22;20066;-92
2023/10/23 11:47:49;;;;;;;5.47;2.08;;;;;;;17.26;63.82;99470.25;6301088;22;20487;-92
2023/10/23 11:50:14;;;;;;;4.47;1.90;;;;;;;17.42;63.21;99478.09;6300881;22;20010;-93
2023/10/23 11:52:44;;;;;;;3.83;1.83;;;;;;;17.19;63.28;99469.88;6300909;22;20089;-92
2023/10/23 11:55:14;;;;;;;4.10;1.83;;;;;;;17.30;63.49;99464.09;6300834;22;20120;-94
2023/10/23 11:57:41;;;;;;;5.68;2.30;;;;;;;17.44;63.46;99461.25;6301018;22;20030;-92
2023/10/23 12:00:14;;;;;;;4.00;2.25;;;;;;;17.35;64.13;99461.22;6300872;22;20004;-94
2023/10/23 12:02:41;;;;;;;3.70;1.42;;;;;;;17.43;63.73;99460.41;6304824;22;20007;-93
2023/10/23 12:05:12;;;;;;;3.20;1.70;;;;;;;17.30;63.97;99459.41;6278798;22;20286;-93
2023/10/23 12:07:41;;;;;;;5.93;1.75;;;;;;;17.35;63.81;99451.00;6302537;22;20006;-92
2023/10/23 12:10:10;;;;;;;5.45;1.48;;;;;;;17.48;63.80;99442.94;6301173;22;20011;-92
2023/10/23 12:12:39;;;;;;;5.28;2.28;;;;;;;17.43;63.10;99441.13;6301111;22;20003;-93
2023/10/23 12:15:06;;;;;;;4.95;1.65;;;;;;;17.37;63.55;99437.72;6300918;22;20068;-93
2023/10/23 12:17:31;;;;;;;3.50;1.40;;;;;;;17.38;63.34;99435.78;6300129;22;19999;-93
2023/10/23 12:19:57;;;;;;;3.65;1.73;;;;;;;17.37;62.86;99426.69;6301023;22;20026;-93
2023/10/23 12:22:25;;;;;;;4.00;1.50;;;;;;;17.34;63.18;99426.53;6300366;22;20643;-93
2023/10/23 12:24:50;;;;;;;1.98;1.05;;;;;;;17.30;63.49;99431.06;6300440;22;20042;-93
2023/10/23 12:27:16;;;;;;;5.65;1.55;;;;;;;17.19;63.35;99427.78;6301527;22;20456;-92
2023/10/23 12:29:41;;;;;;;5.22;2.00;;;;;;;17.18;63.84;99420.63;6300620;22;20039;-93
2023/10/23 12:32:07;;;;;;;2.45;1.23;;;;;;;17.19;63.36;99414.81;6300582;22;20014;-93
2023/10/23 12:34:33;;;;;;;3.53;1.35;;;;;;;17.23;63.53;99409.47;6301468;22;20060;-93
2023/10/23 12:36:58;;;;;;;5.10;1.35;;;;;;;17.27;62.72;99408.53;6273945;22;20064;-93
2023/10/23 12:39:25;;;;;;;3.03;1.50;;;;;;;17.20;62.90;99410.13;6300301;22;20475;-92
2023/10/23 12:41:50;;;;;;;4.72;2.10;;;;;;;17.17;62.92;99406.03;6300629;22;20019;-93
2023/10/23 12:44:15;;;;;;;2.08;1.10;;;;;;;17.05;62.63;99403.88;6273568;22;20023;-93
2023/10/23 12:46:41;;;;;;;6.88;2.92;;;;;;;17.13;62.42;99400.38;6300675;22;20014;-92
2023/10/23 12:49:06;;;;;;;4.60;1.67;;;;;;;17.16;62.52;99407.19;6273368;22;20007;-92
2023/10/23 12:51:31;;;;;;;4.03;1.65;;;;;;;17.01;63.00;99414.72;6273490;22;20411;-93
2023/10/23 12:53:57;;;;;;;3.85;1.55;;;;;;;17.17;62.56;99405.25;6272947;22;20007;-92
2023/10/23 12:56:22;;;;;;;4.63;1.65;;;;;;;17.06;62.49;99407.44;6273505;22;20007;-92
2023/10/23 12:58:47;;;;;;;6.38;1.73;;;;;;;17.10;62.28;99412.00;6300408;22;20003;-92
2023/10/23 13:01:13;;;;;;;2.50;1.20;;;;;;;17.09;62.19;99406.78;6272845;22;20038;-92
2023/10/23 13:03:38;;;;;;;3.28;1.80;;;;;;;17.13;62.79;99405.06;6300305;22;20266;-93
2023/10/23 13:06:04;;;;;;;5.78;1.25;;;;;;;17.27;62.49;99393.94;6300079;22;19999;-93
2023/10/23 13:08:29;;;;;;;3.25;1.45;;;;;;;17.24;61.79;99394.56;6300844;22;20003;-92
2023/10/23 13:10:54;;;;;;;2.42;0.90;;;;;;;17.18;61.97;99391.16;6300407;22;20007;-92
2023/10/23 13:13:20;;;;;;;1.92;0.95;;;;;;;17.00;61.95;99388.28;6300268;22;20425;-93
2023/10/23 13:15:45;;;;;;;4.97;1.60;;;;;;;17.17;61.77;99383.22;6300322;22;20170;-93
2023/10/23 13:18:10;;;;;;;3.92;1.10;;;;;;;17.02;61.62;99388.00;6300577;22;20240;-93
2023/10/23 13:20:36;;;;;;;3.10;1.20;;;;;;;16.82;62.05;99368.13;6300167;22;20012;-92
2023/10/23 13:23:01;;;;;;;2.30;1.00;;;;;;;16.86;61.77;99358.09;6300415;22;20017;-92
2023/10/23 13:25:26;;;;;;;3.50;1.13;;;;;;;16.92;61.38;99354.09;6301876;22;20340;-93
2023/10/23 13:27:51;;;;;;;2.60;0.90;;;;;;;17.10;61.29;99345.91;6301040;22;20278;-93
2023/10/23 13:30:17;;;;;;;2.65;1.17;;;;;;;17.15;61.80;99348.53;6299074;22;20102;-93
2023/10/23 13:32:42;;;;;;;2.40;1.05;;;;;;;16.98;61.91;99342.94;6273854;22;20011;-92
2023/10/23 13:35:08;;;;;;;3.70;1.33;;;;;;;17.17;61.64;99333.66;6300547;22;20011;-93
2023/10/23 13:37:34;;;;;;;2.22;1.02;;;;;;;16.97;61.26;99322.03;6300773;22;20007;-93
2023/10/23 13:40:00;;;;;;;2.53;1.50;;;;;;;16.95;61.42;99321.53;6300385;22;20014;-93
2023/10/23 13:42:25;;;;;;;2.92;1.50;;;;;;;17.00;61.36;99313.94;6300011;22;20437;-92
2023/10/23 13:44:50;;;;;;;2.58;1.20;;;;;;;17.06;60.65;99322.91;6275598;22;20007;-93
2023/10/23 13:47:17;;;;;;;1.63;0.93;;;;;;;17.06;60.20;99317.38;6302446;22;20015;-92
2023/10/23 13:49:43;;;;;;;5.75;1.10;;;;;;;17.03;60.04;99318.00;6275535;22;20003;-93
2023/10/23 13:52:08;;;;;;;5.78;1.65;;;;;;;17.10;60.64;99312.88;6301773;22;20007;-92
2023/10/23 13:54:33;;;;;;;3.90;1.20;;;;;;;17.14;61.02;99302.03;6302582;22;20082;-92
2023/10/23 13:56:59;;;;;;;3.40;1.40;;;;;;;17.15;60.91;99298.97;6275483;22;20095;-93
2023/10/23 13:59:25;;;;;;;2.25;0.82;;;;;;;17.13;60.34;99297.66;6302695;22;20313;-92
2023/10/23 14:01:50;;;;;;;1.92;1.08;;;;;;;17.24;59.74;99292.66;6302727;22;19999;-92
2023/10/23 14:04:15;;;;;;;3.40;1.00;;;;;;;17.20;59.97;99286.19;6302405;22;20022;-93
2023/10/23 14:06:41;;;;;;;4.30;1.05;;;;;;;17.25;59.88;99286.00;6302188;22;20003;-93
2023/10/23 14:09:07;;;;;;;1.83;0.77;;;;;;;17.35;60.23;99273.91;6302693;22;20302;-92
2023/10/23 14:11:32;;;;;;;3.58;1.38;;;;;;;17.37;59.97;99272.41;6302389;22;20011;-93
2023/10/23 14:13:58;;;;;;;5.65;1.15;;;;;;;17.34;60.03;99273.06;6302467;22;20528;-93
2023/10/23 14:16:24;;;;;;;3.30;1.25;;;;;;;17.48;59.21;99264.66;6307363;22;20040;-92
2023/10/23 14:18:50;;;;;;;3.10;1.10;;;;;;;17.54;59.78;99258.97;6307741;22;20098;-92
2023/10/23 14:21:16;;;;;;;4.63;1.48;;;;;;;17.47;59.38;99251.22;6302752;22;20010;-92
2023/10/23 14:23:41;;;;;;;3.83;1.58;;;;;;;17.43;58.84;99250.22;6301946;22;20042;-93
2023/10/23 14:26:08;;;;;;;2.15;0.98;;;;;;;17.42;59.18;99248.59;6301607;22;20011;-93
2023/10/23 14:28:41;;;;;;;4.10;1.15;;;;;;;17.37;58.95;99244.09;6302626;22;20011;-94
2023/10/23 14:31:06;;;;;;;3.10;1.00;;;;;;;17.22;59.28;99248.09;6274676;22;20015;-92
2023/10/23 14:33:32;;;;;;;2.60;1.17;;;;;;;17.15;59.22;99241.13;6301813;22;20527;-91
2023/10/23 14:35:57;;;;;;;3.90;1.33;;;;;;;17.12;59.30;99239.03;6302683;22;20539;-91
2023/10/23 14:38:23;;;;;;;4.40;1.40;;;;;;;16.91;59.65;99225.84;6301299;22;20003;-91
2023/10/23 14:40:58;;;;;;;5.03;1.05;;;;;;;16.99;59.69;99224.22;6302529;22;20014;-92
2023/10/23 14:43:23;;;;;;;3.55;1.08;;;;;;;16.94;59.72;99221.66;6301919;22;20007;-91
2023/10/23 14:45:51;;;;;;;2.85;1.10;;;;;;;16.85;60.40;99213.34;6302298;22;19999;-92
2023/10/23 14:48:20;;;;;;;3.75;1.33;;;;;;;16.83;60.50;99220.31;6301774;22;20011;-92
2023/10/23 14:50:46;;;;;;;7.65;1.27;;;;;;;16.79;60.30;99207.19;6302078;22;20018;-91
2023/10/23 14:53:11;;;;;;;2.90;1.05;;;;;;;16.73;60.45;99199.41;6300885;22;20011;-91
2023/10/23 14:55:37;;;;;;;2.63;0.98;;;;;;;16.54;61.36;99204.06;6301155;22;20007;-92
2023/10/23 14:58:03;;;;;;;2.60;1.10;;;;;;;16.40;61.00;99187.66;6274595;22;20008;-91
2023/10/23 15:00:31;;;;;;;5.10;1.27;;;;;;;16.49;60.73;99181.38;6301360;22;20022;-91
2023/10/23 15:02:56;;;;;;;2.70;0.82;;;;;;;16.55;60.76;99177.34;6273876;22;20011;-92
2023/10/23 15:05:22;;;;;;;2.35;1.13;;;;;;;16.51;60.91;99170.88;6302185;22;20011;-92
2023/10/23 15:07:47;;;;;;;4.00;1.52;;;;;;;16.49;61.24;99170.38;6274900;22;20435;-91
2023/10/23 15:10:15;;;;;;;3.75;1.25;;;;;;;16.53;60.77;99158.41;6301353;22;20015;-91
2023/10/23 15:12:40;;;;;;;1.88;0.70;;;;;;;16.48;61.59;99160.50;6302227;22;20007;-91
2023/10/23 15:15:07;;;;;;;5.68;0.88;;;;;;;16.40;61.34;99151.09;6301660;22;20085;-92
2023/10/23 15:17:33;;;;;;;5.53;1.38;;;;;;;16.25;61.66;99146.84;6301543;22;20019;-92
2023/10/23 15:19:59;;;;;;;3.28;0.88;;;;;;;16.31;61.18;99132.63;6301312;22;20122;-91
2023/10/23 15:22:25;;;;;;;4.68;1.67;;;;;;;16.28;61.62;99135.19;6263569;22;20048;-91
2023/10/23 15:24:50;;;;;;;2.78;1.00;;;;;;;16.22;62.08;99131.78;6240873;22;20008;-91
2023/10/23 15:27:16;;;;;;;11.70;2.00;;;;;;;16.03;62.33;99121.06;6239718;23;20020;-92
2023/10/23 15:29:42;;;;;;;4.80;1.50;;;;;;;16.16;62.13;99119.31;6240043;23;20000;-91
2023/10/23 15:32:08;;;;;;;4.15;1.50;;;;;;;16.17;62.28;99110.75;6239960;22;20008;-91
2023/10/23 15:34:33;;;;;;;3.47;1.30;;;;;;;16.06;62.43;99106.66;6239468;23;20023;-92
2023/10/23 15:36:58;;;;;;;4.10;1.07;;;;;;;16.12;62.26;99105.41;6237998;23;20090;-91
2023/10/23 15:39:24;;;;;;;5.22;1.45;;;;;;;16.08;62.01;99105.22;6239660;22;20255;-91
2023/10/23 15:41:49;;;;;;;6.30;2.13;;;;;;;16.08;62.36;99098.91;6239574;23;20503;-92
2023/10/23 15:44:20;;;;;;;3.65;1.42;;;;;;;16.07;62.33;99102.78;6246334;22;20238;-95
